Time;durP1;ratioP1;P1;durP2;ratioP2;P2;SDS_P1;SDS_P2;PMS_P1;PMS_P2;Temp;Humidity;BMP_temperature;BMP_pressure;BME280_temperature;BME280_humidity;BME280_pressure;Samples;Min_cycle;Max_cycle;Signal;HPM_P1;HPM_P2
2021/01/14 00:00:46;;;;;;;1.80;1.30;;;3.20;99.90;;;;;;5108417;28;20216;-74
2021/01/14 00:03:13;;;;;;;1.30;1.20;;;3.10;99.90;;;;;;5100763;28;20364;-75
2021/01/14 00:05:40;;;;;;;1.60;1.50;;;3.00;99.90;;;;;;5099808;28;20203;-76
2021/01/14 00:08:06;;;;;;;1.40;1.30;;;3.00;99.90;;;;;;5099703;28;20289;-74
2021/01/14 00:10:33;;;;;;;1.37;1.27;;;3.00;99.90;;;;;;5103776;28;20203;-74
2021/01/14 00:12:58;;;;;;;1.40;1.30;;;3.00;99.90;;;;;;5104478;28;20187;-76
2021/01/14 00:15:24;;;;;;;1.30;1.20;;;2.90;99.90;;;;;;5098913;28;20187;-76
2021/01/14 00:17:50;;;;;;;2.40;1.33;;;2.90;99.90;;;;;;5105459;28;20198;-75
2021/01/14 00:20:19;;;;;;;1.37;1.27;;;3.00;99.90;;;;;;5110566;28;20216;-75
2021/01/14 00:22:46;;;;;;;1.20;1.13;;;2.90;99.90;;;;;;5096217;28;20175;-75
2021/01/14 00:25:13;;;;;;;1.57;1.40;;;2.90;99.90;;;;;;5096457;28;20180;-74
2021/01/14 00:27:39;;;;;;;1.57;1.47;;;2.90;99.90;;;;;;5100177;28;20197;-74
2021/01/14 00:30:10;;;;;;;1.50;1.40;;;2.90;99.90;;;;;;5080804;28;20743;-74
2021/01/14 00:32:35;;;;;;;3.03;2.73;;;2.80;99.90;;;;;;5085895;28;20193;-74
2021/01/14 00:35:01;;;;;;;2.80;1.60;;;2.80;99.90;;;;;;5084051;28;20208;-74
2021/01/14 00:40:12;;;;;;;1.60;1.50;;;2.70;99.90;;;;;;5079373;28;20186;-76
2021/01/14 00:42:37;;;;;;;1.63;1.53;;;2.70;99.90;;;;;;5077070;28;20175;-74
2021/01/14 00:45:04;;;;;;;1.40;1.30;;;2.60;99.90;;;;;;5071533;28;20199;-74
2021/01/14 00:47:37;;;;;;;1.60;1.50;;;2.60;99.90;;;;;;5085141;28;20230;-74
2021/01/14 00:50:07;;;;;;;1.27;1.23;;;2.60;99.90;;;;;;5086952;28;20877;-74
2021/01/14 00:52:32;;;;;;;1.37;1.27;;;2.60;99.90;;;;;;5077871;28;20188;-74
2021/01/14 00:54:58;;;;;;;1.37;1.27;;;2.60;99.90;;;;;;5085251;28;20221;-75
2021/01/14 00:57:23;;;;;;;1.60;1.50;;;2.60;99.90;;;;;;5086021;28;20204;-75
2021/01/14 00:59:49;;;;;;;1.60;1.50;;;2.60;99.90;;;;;;5078313;28;20653;-74
2021/01/14 01:02:15;;;;;;;1.50;1.40;;;2.60;99.90;;;;;;5073732;28;20220;-74
2021/01/14 01:04:41;;;;;;;1.40;1.30;;;2.60;99.90;;;;;;5077150;28;20179;-75
2021/01/14 01:07:07;;;;;;;1.57;1.47;;;2.60;99.90;;;;;;5088935;28;20205;-74
2021/01/14 01:09:33;;;;;;;1.60;1.50;;;2.60;99.90;;;;;;5087728;28;20200;-75
2021/01/14 01:11:59;;;;;;;1.60;1.50;;;2.70;99.90;;;;;;5078213;28;20188;-74
2021/01/14 01:14:24;;;;;;;1.50;1.40;;;2.70;99.90;;;;;;5076352;28;20661;-74
2021/01/14 01:16:55;;;;;;;1.40;1.30;;;2.70;99.90;;;;;;5091828;28;20211;-74
2021/01/14 01:19:21;;;;;;;1.47;1.30;;;2.70;99.90;;;;;;5076521;28;20193;-75
2021/01/14 01:21:46;;;;;;;1.57;1.40;;;2.60;99.90;;;;;;5079300;28;20198;-74
2021/01/14 01:24:12;;;;;;;1.60;1.50;;;2.60;99.90;;;;;;5074360;28;20235;-74
2021/01/14 01:26:38;;;;;;;1.47;1.37;;;2.60;99.90;;;;;;5083318;28;20258;-74
2021/01/14 01:29:04;;;;;;;1.43;1.33;;;2.50;99.90;;;;;;5080585;28;20700;-74
2021/01/14 01:31:30;;;;;;;1.63;1.53;;;2.60;99.90;;;;;;5083336;28;20677;-74
2021/01/14 01:33:56;;;;;;;1.80;1.70;;;2.50;99.90;;;;;;5083756;28;20240;-75
2021/01/14 01:36:21;;;;;;;1.80;1.70;;;2.40;99.90;;;;;;5078261;28;20696;-74
2021/01/14 01:38:47;;;;;;;2.07;1.47;;;2.40;99.90;;;;;;5075667;28;20184;-74
2021/01/14 01:41:12;;;;;;;2.00;1.90;;;2.40;99.90;;;;;;5083343;28;20180;-74
2021/01/14 01:43:38;;;;;;;2.03;1.93;;;2.40;99.90;;;;;;5097980;28;20185;-74
2021/01/14 01:46:05;;;;;;;2.70;1.70;;;2.40;99.90;;;;;;5101228;28;20223;-74
2021/01/14 01:48:31;;;;;;;2.03;1.83;;;2.40;99.90;;;;;;5105676;28;20176;-74
2021/01/14 01:51:00;;;;;;;2.13;1.90;;;2.40;99.90;;;;;;5093899;28;20602;-74
2021/01/14 01:53:27;;;;;;;2.07;1.97;;;2.50;99.90;;;;;;5074132;28;20734;-74
2021/01/14 01:55:53;;;;;;;2.17;2.03;;;2.40;99.90;;;;;;5076643;28;20207;-74
2021/01/14 01:58:22;;;;;;;1.50;1.40;;;2.40;99.90;;;;;;5088473;28;20275;-75
2021/01/14 02:00:49;;;;;;;2.10;1.90;;;2.40;99.90;;;;;;5079160;28;20215;-74
2021/01/14 02:03:16;;;;;;;2.00;1.63;;;2.40;99.90;;;;;;5072497;28;20262;-74
2021/01/14 02:05:41;;;;;;;1.77;1.67;;;2.50;99.90;;;;;;5078013;28;20663;-75
2021/01/14 02:08:10;;;;;;;1.93;1.83;;;2.50;99.90;;;;;;5074942;28;20225;-74
2021/01/14 02:11:00;;;;;;;1.70;1.60;;;2.40;99.90;;;;;;5074048;28;20182;-74
2021/01/14 02:13:50;;;;;;;1.73;1.63;;;2.40;99.90;;;;;;5081003;28;20182;-75
2021/01/14 02:16:16;;;;;;;1.63;1.53;;;2.40;99.90;;;;;;5077371;28;20219;-74
2021/01/14 02:18:42;;;;;;;2.03;1.93;;;2.40;99.90;;;;;;5079117;28;20199;-74
2021/01/14 02:21:13;;;;;;;1.70;1.60;;;2.30;99.90;;;;;;5082633;28;20261;-74
2021/01/14 02:24:07;;;;;;;1.70;1.60;;;2.40;99.90;;;;;;5070666;28;20230;-74
2021/01/14 02:26:36;;;;;;;2.17;2.07;;;2.30;99.90;;;;;;5074841;28;20958;-74
2021/01/14 02:29:02;;;;;;;1.63;1.53;;;2.30;99.90;;;;;;5084257;28;20186;-75
2021/01/14 02:31:27;;;;;;;2.23;2.03;;;2.30;99.90;;;;;;5074474;28;20233;-74
2021/01/14 02:33:55;;;;;;;4.30;1.70;;;2.30;99.90;;;;;;5084795;28;20194;-74
2021/01/14 02:36:22;;;;;;;2.00;1.90;;;2.30;99.90;;;;;;5084084;28;20621;-74
2021/01/14 02:38:48;;;;;;;1.83;1.73;;;2.30;99.90;;;;;;5079895;28;20167;-74
2021/01/14 02:41:14;;;;;;;1.70;1.60;;;2.30;99.90;;;;;;5077133;28;20228;-74
2021/01/14 02:43:39;;;;;;;1.77;1.67;;;2.30;99.90;;;;;;5078558;28;20207;-75
2021/01/14 02:46:07;;;;;;;1.97;1.87;;;2.30;99.90;;;;;;5093411;28;20583;-75
2021/01/14 02:48:57;;;;;;;2.33;2.07;;;2.30;99.90;;;;;;5073669;28;20193;-75
2021/01/14 02:51:27;;;;;;;2.63;2.20;;;2.30;99.90;;;;;;5077304;28;20187;-75
2021/01/14 02:53:54;;;;;;;2.20;2.00;;;2.30;99.90;;;;;;5089511;28;20733;-73
2021/01/14 02:56:22;;;;;;;1.90;1.73;;;2.30;99.90;;;;;;5083475;28;20344;-74
2021/01/14 02:58:48;;;;;;;2.87;2.17;;;2.30;99.90;;;;;;5081854;28;20185;-76
2021/01/14 03:01:13;;;;;;;3.53;1.90;;;2.30;99.90;;;;;;5076674;28;20558;-74
2021/01/14 03:03:39;;;;;;;2.20;1.80;;;2.40;99.90;;;;;;5083248;28;20188;-76
2021/01/14 03:06:04;;;;;;;2.40;1.60;;;2.40;99.90;;;;;;5082314;28;20557;-75
2021/01/14 03:08:30;;;;;;;1.70;1.60;;;2.40;99.90;;;;;;5073574;28;20290;-75
2021/01/14 03:10:55;;;;;;;2.20;1.60;;;2.40;99.90;;;;;;5084265;28;20177;-74
2021/01/14 03:13:21;;;;;;;1.70;1.60;;;2.40;99.90;;;;;;5086647;28;20185;-76
2021/01/14 03:15:47;;;;;;;2.60;2.40;;;2.40;99.90;;;;;;5082785;28;20285;-74
2021/01/14 03:18:12;;;;;;;2.30;1.87;;;2.40;99.90;;;;;;5074449;28;20192;-74
2021/01/14 03:20:38;;;;;;;2.73;2.00;;;2.40;99.90;;;;;;5082152;28;20191;-75
2021/01/14 03:23:04;;;;;;;1.60;1.50;;;2.40;99.90;;;;;;5080601;28;20767;-74
2021/01/14 03:25:30;;;;;;;3.33;1.57;;;2.50;99.90;;;;;;5080971;28;20254;-74
2021/01/14 03:27:55;;;;;;;1.83;1.63;;;2.50;99.90;;;;;;5084234;28;20202;-76
2021/01/14 03:30:22;;;;;;;2.70;1.70;;;2.50;99.90;;;;;;5085322;28;20205;-74
2021/01/14 03:32:47;;;;;;;2.90;1.90;;;2.50;99.90;;;;;;5079234;28;20193;-74
2021/01/14 03:35:13;;;;;;;1.90;1.70;;;2.50;99.90;;;;;;5078569;28;20212;-74
2021/01/14 03:37:41;;;;;;;1.90;1.80;;;2.50;99.90;;;;;;5073330;28;20229;-76
2021/01/14 03:40:09;;;;;;;3.40;1.60;;;2.50;99.90;;;;;;5080172;28;20190;-75
2021/01/14 03:42:35;;;;;;;2.50;2.27;;;2.50;99.90;;;;;;5083515;28;20201;-75
2021/01/14 03:45:01;;;;;;;2.03;1.87;;;2.50;99.90;;;;;;5079295;28;20188;-74
2021/01/14 03:47:26;;;;;;;5.30;2.07;;;2.50;99.90;;;;;;5089213;28;20218;-75
2021/01/14 03:49:52;;;;;;;2.90;1.93;;;2.50;99.90;;;;;;5085992;28;20606;-75
2021/01/14 03:52:18;;;;;;;2.27;2.03;;;2.50;99.90;;;;;;5086892;28;20187;-74
2021/01/14 03:54:46;;;;;;;3.30;2.30;;;2.50;99.90;;;;;;5075715;28;20200;-76
2021/01/14 03:57:12;;;;;;;3.83;2.50;;;2.50;99.90;;;;;;5087568;28;20203;-74
2021/01/14 03:59:38;;;;;;;3.20;2.50;;;2.40;99.90;;;;;;5085233;28;20189;-75
2021/01/14 04:02:07;;;;;;;5.00;2.50;;;2.40;99.90;;;;;;5076527;28;20309;-74
2021/01/14 04:04:43;;;;;;;4.03;2.60;;;2.30;99.90;;;;;;5082767;28;20176;-73
2021/01/14 04:07:13;;;;;;;4.17;2.87;;;2.30;99.90;;;;;;5079219;28;20208;-75
2021/01/14 04:09:40;;;;;;;2.83;2.53;;;2.40;99.90;;;;;;5086749;28;20233;-75
2021/01/14 04:12:06;;;;;;;4.00;3.10;;;2.40;99.90;;;;;;5090229;28;20189;-75
2021/01/14 04:14:32;;;;;;;5.00;3.20;;;2.40;99.90;;;;;;5084618;28;20183;-77
2021/01/14 04:16:58;;;;;;;6.00;3.17;;;2.40;99.90;;;;;;5075506;28;20220;-75
2021/01/14 04:19:23;;;;;;;3.40;3.10;;;2.30;99.90;;;;;;5079197;28;20185;-76
2021/01/14 04:21:49;;;;;;;5.63;3.30;;;2.30;99.90;;;;;;5100475;28;20658;-75
2021/01/14 04:24:15;;;;;;;9.53;3.53;;;2.30;99.90;;;;;;5099210;28;20585;-75
2021/01/14 04:26:41;;;;;;;3.97;3.57;;;2.30;99.90;;;;;;5078034;28;20207;-75
2021/01/14 04:29:08;;;;;;;7.07;3.63;;;2.30;99.90;;;;;;5084119;28;20178;-76
2021/01/14 04:31:34;;;;;;;4.83;3.77;;;2.20;99.90;;;;;;5072333;28;20244;-76
2021/01/14 04:34:00;;;;;;;9.73;4.30;;;2.20;99.90;;;;;;5081081;28;20188;-75
2021/01/14 04:36:26;;;;;;;8.57;6.10;;;2.20;99.90;;;;;;5078557;28;20207;-76
2021/01/14 04:38:51;;;;;;;6.47;5.17;;;2.20;99.90;;;;;;5081006;28;20186;-75
2021/01/14 04:41:19;;;;;;;9.93;5.43;;;2.10;99.90;;;;;;5084657;28;20175;-75
2021/01/14 04:43:46;;;;;;;7.73;5.20;;;2.10;99.90;;;;;;5082854;28;20335;-75
2021/01/14 04:46:12;;;;;;;8.03;4.40;;;2.10;99.90;;;;;;5082369;28;20212;-75
2021/01/14 04:48:46;;;;;;;7.90;4.27;;;2.10;99.90;;;;;;5084386;28;20658;-75
2021/01/14 04:51:14;;;;;;;5.77;4.33;;;2.00;99.90;;;;;;5080503;28;20192;-75
2021/01/14 04:53:44;;;;;;;6.27;4.00;;;2.00;99.90;;;;;;5078818;28;20654;-75
2021/01/14 04:56:11;;;;;;;5.93;3.90;;;2.00;99.90;;;;;;5080516;28;20211;-76
2021/01/14 04:58:45;;;;;;;6.60;4.43;;;2.00;99.90;;;;;;5089396;28;20192;-75
2021/01/14 05:01:21;;;;;;;7.10;4.00;;;2.00;99.90;;;;;;5082754;28;20224;-77
2021/01/14 05:03:48;;;;;;;7.37;4.20;;;1.90;99.90;;;;;;5084790;28;20614;-75
2021/01/14 05:06:24;;;;;;;6.27;4.10;;;1.90;99.90;;;;;;5080948;28;20620;-75
2021/01/14 05:09:04;;;;;;;5.50;3.80;;;1.90;99.90;;;;;;5076904;28;20674;-75
2021/01/14 05:11:39;;;;;;;5.30;4.50;;;1.80;99.90;;;;;;5076501;28;20660;-75
2021/01/14 05:14:05;;;;;;;7.13;4.87;;;1.80;99.90;;;;;;5079882;28;20680;-74
2021/01/14 05:16:31;;;;;;;10.47;5.13;;;1.80;99.90;;;;;;5085276;28;20333;-74
2021/01/14 05:18:59;;;;;;;8.80;5.50;;;1.90;99.90;;;;;;5073047;28;20674;-75
2021/01/14 05:21:32;;;;;;;11.87;7.13;;;1.90;99.90;;;;;;5082410;28;20190;-74
2021/01/14 05:24:09;;;;;;;10.23;7.37;;;1.90;99.90;;;;;;5091405;28;20180;-75
2021/01/14 05:26:34;;;;;;;11.83;6.73;;;1.90;99.90;;;;;;5075703;28;20237;-75
2021/01/14 05:29:16;;;;;;;8.63;6.90;;;1.90;99.90;;;;;;5072904;28;20218;-74
2021/01/14 05:31:43;;;;;;;9.47;7.10;;;1.90;99.90;;;;;;5080346;28;20182;-75
2021/01/14 05:34:09;;;;;;;15.20;10.00;;;1.90;99.90;;;;;;5086085;28;20261;-74
2021/01/14 05:37:05;;;;;;;10.10;9.03;;;1.90;99.90;;;;;;5081262;28;20216;-75
2021/01/14 05:39:42;;;;;;;7.13;6.00;;;2.00;99.90;;;;;;5077033;28;20180;-76
2021/01/14 05:42:11;;;;;;;6.63;5.53;;;2.00;99.90;;;;;;5084335;28;20183;-75
2021/01/14 05:44:39;;;;;;;8.60;7.33;;;1.90;99.90;;;;;;5082220;28;20984;-73
2021/01/14 05:47:23;;;;;;;12.30;7.77;;;1.90;99.90;;;;;;5081751;28;20206;-75
2021/01/14 05:49:53;;;;;;;10.60;7.43;;;1.90;99.90;;;;;;5078445;28;20239;-75
2021/01/14 05:52:22;;;;;;;9.13;8.20;;;1.90;99.90;;;;;;5082558;28;20182;-73
2021/01/14 05:54:59;;;;;;;9.00;6.40;;;1.90;99.90;;;;;;5074694;28;20344;-77
2021/01/14 05:57:33;;;;;;;9.87;7.27;;;1.90;99.90;;;;;;5075062;28;20220;-75
2021/01/14 06:00:08;;;;;;;11.20;7.77;;;1.90;99.90;;;;;;5078470;28;20184;-75
2021/01/14 06:02:33;;;;;;;11.73;8.33;;;1.90;99.90;;;;;;5079713;28;20174;-75
2021/01/14 06:04:59;;;;;;;9.50;7.20;;;1.90;99.90;;;;;;5086379;28;20666;-75
2021/01/14 06:07:39;;;;;;;11.63;8.20;;;2.10;99.90;;;;;;5078719;28;20618;-77
2021/01/14 06:10:06;;;;;;;13.27;6.87;;;2.20;99.90;;;;;;5072955;28;20259;-76
2021/01/14 06:12:31;;;;;;;11.63;6.60;;;2.40;99.90;;;;;;5077107;28;20700;-77
2021/01/14 06:14:57;;;;;;;9.57;6.83;;;2.50;99.90;;;;;;5077264;28;20200;-75
2021/01/14 06:17:32;;;;;;;7.80;6.50;;;2.60;99.90;;;;;;5071551;28;20350;-76
2021/01/14 06:20:08;;;;;;;6.93;6.23;;;2.70;99.90;;;;;;5080567;28;20189;-75
2021/01/14 06:22:36;;;;;;;10.17;6.00;;;2.80;99.90;;;;;;5079008;28;20191;-77
2021/01/14 06:25:06;;;;;;;6.10;5.33;;;2.80;99.90;;;;;;5084022;28;20177;-74
2021/01/14 06:27:32;;;;;;;8.03;5.63;;;2.90;99.90;;;;;;5070012;28;20212;-74
2021/01/14 06:30:08;;;;;;;8.93;6.00;;;3.00;99.90;;;;;;5074524;28;20181;-75
2021/01/14 06:32:41;;;;;;;7.27;5.93;;;3.00;99.90;;;;;;5070343;28;20456;-75
2021/01/14 06:35:07;;;;;;;8.73;5.67;;;3.00;99.90;;;;;;5075924;28;20190;-76
2021/01/14 06:37:38;;;;;;;9.23;7.13;;;2.80;99.90;;;;;;5081818;28;20608;-76
2021/01/14 06:40:06;;;;;;;13.47;8.73;;;2.70;99.90;;;;;;5085929;28;20175;-76
2021/01/14 06:42:36;;;;;;;14.73;9.67;;;2.60;99.90;;;;;;5080714;28;20265;-76
2021/01/14 06:45:11;;;;;;;13.17;9.00;;;2.50;99.90;;;;;;5080330;28;20185;-75
2021/01/14 06:47:44;;;;;;;10.57;8.93;;;2.50;99.90;;;;;;5084689;28;20203;-75
2021/01/14 06:50:17;;;;;;;11.20;7.30;;;2.40;99.90;;;;;;5096048;28;20188;-76
2021/01/14 06:52:50;;;;;;;7.70;6.87;;;2.40;99.90;;;;;;5102037;28;20180;-77
2021/01/14 06:55:18;;;;;;;9.33;7.40;;;2.40;99.90;;;;;;5110263;28;20194;-75
2021/01/14 06:58:13;;;;;;;10.37;8.20;;;2.30;99.90;;;;;;5105300;28;20209;-77
2021/01/14 07:00:50;;;;;;;13.20;8.27;;;2.30;99.90;;;;;;5091478;28;20184;-76
2021/01/14 07:03:21;;;;;;;11.40;8.27;;;2.30;99.90;;;;;;5080743;28;20719;-74
2021/01/14 07:05:52;;;;;;;13.03;9.57;;;2.40;99.90;;;;;;5078741;28;20609;-75
2021/01/14 07:08:39;;;;;;;10.23;7.47;;;2.40;99.90;;;;;;5076203;28;20189;-76
2021/01/14 07:11:12;;;;;;;10.37;8.83;;;2.40;99.90;;;;;;5083394;28;20524;-76
2021/01/14 07:13:48;;;;;;;9.93;8.90;;;2.40;99.90;;;;;;5080673;28;20189;-77
2021/01/14 07:16:35;;;;;;;11.40;8.80;;;2.40;99.90;;;;;;5080424;28;20210;-78
2021/01/14 07:19:01;;;;;;;10.52;9.10;;;2.40;99.90;;;;;;5075123;28;20514;-77
2021/01/14 07:21:35;;;;;;;10.30;7.60;;;2.40;99.90;;;;;;5082516;28;20220;-75
2021/01/14 07:24:19;;;;;;;8.87;7.60;;;2.40;99.90;;;;;;5080109;28;20182;-75
2021/01/14 07:26:52;;;;;;;7.90;6.87;;;2.40;99.90;;;;;;5084063;28;20761;-76
2021/01/14 07:29:18;;;;;;;10.30;8.57;;;2.30;99.90;;;;;;5083178;28;20505;-75
2021/01/14 07:31:51;;;;;;;7.77;6.97;;;2.30;99.90;;;;;;5083459;28;20774;-75
2021/01/14 07:34:45;;;;;;;8.27;6.77;;;2.30;99.90;;;;;;5084656;28;20202;-75
2021/01/14 07:37:16;;;;;;;7.23;6.20;;;2.40;99.90;;;;;;5083277;28;20232;-76
2021/01/14 07:39:56;;;;;;;8.83;6.77;;;2.40;99.90;;;;;;5087377;28;20838;-75
2021/01/14 07:42:27;;;;;;;10.77;6.47;;;2.30;99.90;;;;;;5076088;28;20184;-75
2021/01/14 07:44:55;;;;;;;11.07;7.20;;;2.30;99.90;;;;;;5084752;28;20209;-76
2021/01/14 07:47:31;;;;;;;8.17;6.33;;;2.30;99.90;;;;;;5076281;28;20247;-75
2021/01/14 07:49:58;;;;;;;8.63;7.27;;;2.30;99.90;;;;;;5074672;28;20197;-75
2021/01/14 07:52:32;;;;;;;10.07;6.97;;;2.30;99.90;;;;;;5083642;28;20245;-75
2021/01/14 07:55:00;;;;;;;8.63;7.77;;;2.30;99.90;;;;;;5082233;28;20213;-75
2021/01/14 07:57:28;;;;;;;11.30;7.90;;;2.30;99.90;;;;;;5082771;28;20207;-76
2021/01/14 07:59:59;;;;;;;11.00;9.50;;;2.30;99.90;;;;;;5082667;28;20926;-75
2021/01/14 08:02:24;;;;;;;8.20;7.40;;;2.50;99.90;;;;;;5077706;28;20420;-76
2021/01/14 08:04:53;;;;;;;8.57;7.30;;;2.50;99.90;;;;;;5083632;28;20194;-75
2021/01/14 08:07:26;;;;;;;12.97;7.47;;;2.60;99.90;;;;;;5079520;28;20234;-75
2021/01/14 08:09:52;;;;;;;7.67;6.50;;;2.80;99.90;;;;;;5081782;28;20176;-75
2021/01/14 08:12:22;;;;;;;14.40;8.80;;;2.90;99.90;;;;;;5079500;28;20213;-75
2021/01/14 08:14:48;;;;;;;11.97;9.23;;;2.90;99.90;;;;;;5075936;28;20246;-75
2021/01/14 08:17:27;;;;;;;11.53;9.50;;;2.80;99.90;;;;;;5077927;28;20191;-75
2021/01/14 08:19:54;;;;;;;8.90;8.00;;;2.70;99.90;;;;;;5085822;28;20229;-74
2021/01/14 08:22:21;;;;;;;9.87;8.27;;;2.70;99.90;;;;;;5079305;28;20218;-75
2021/01/14 08:24:53;;;;;;;9.47;7.27;;;2.70;99.90;;;;;;5091267;28;20198;-74
2021/01/14 08:27:25;;;;;;;8.53;6.50;;;2.70;99.90;;;;;;5085183;28;20198;-74
2021/01/14 08:30:12;;;;;;;9.60;7.80;;;2.60;99.90;;;;;;5085321;28;20210;-75
2021/01/14 08:32:57;;;;;;;11.60;8.07;;;2.50;99.90;;;;;;5079523;28;20183;-77
2021/01/14 08:35:34;;;;;;;10.43;8.07;;;2.50;99.90;;;;;;5087441;28;20740;-74
2021/01/14 08:38:12;;;;;;;11.73;7.70;;;2.50;99.90;;;;;;5077826;28;20197;-76
2021/01/14 08:40:40;;;;;;;9.00;7.53;;;2.40;99.90;;;;;;5076033;28;20177;-77
2021/01/14 08:43:15;;;;;;;9.63;7.63;;;2.40;99.90;;;;;;5076360;28;20194;-76
2021/01/14 08:45:51;;;;;;;11.27;8.77;;;2.40;99.90;;;;;;5079812;28;20294;-75
2021/01/14 08:48:23;;;;;;;17.67;12.00;;;2.40;99.90;;;;;;5077196;28;20182;-77
2021/01/14 08:50:55;;;;;;;16.83;10.87;;;2.30;99.90;;;;;;5081108;28;20194;-77
2021/01/14 08:53:26;;;;;;;21.50;12.50;;;2.30;99.90;;;;;;5087752;28;20715;-77
2021/01/14 08:56:16;;;;;;;17.43;11.40;;;2.40;99.90;;;;;;5084422;28;20212;-77
2021/01/14 08:58:44;;;;;;;14.77;11.00;;;2.30;99.90;;;;;;5091660;28;20187;-77
2021/01/14 09:01:21;;;;;;;16.33;9.83;;;2.30;99.90;;;;;;5087944;28;20188;-76
2021/01/14 09:03:48;;;;;;;16.27;10.60;;;2.30;99.90;;;;;;5082300;28;20263;-77
2021/01/14 09:06:28;;;;;;;15.87;12.27;;;2.30;99.90;;;;;;5077288;28;20893;-75
2021/01/14 09:08:54;;;;;;;18.03;11.73;;;2.40;99.90;;;;;;5082112;28;20193;-77
2021/01/14 09:11:27;;;;;;;12.40;10.00;;;2.40;99.90;;;;;;5080626;28;20188;-75
2021/01/14 09:14:08;;;;;;;8.53;6.97;;;2.40;99.90;;;;;;5079812;28;20191;-75
2021/01/14 09:16:35;;;;;;;7.50;6.30;;;2.50;99.90;;;;;;5080328;28;20222;-74
2021/01/14 09:19:10;;;;;;;9.93;6.87;;;2.60;99.90;;;;;;5079618;28;20183;-75
2021/01/14 09:21:35;;;;;;;7.90;6.20;;;2.70;99.90;;;;;;5077201;28;20217;-75
2021/01/14 09:24:07;;;;;;;11.07;7.80;;;2.80;99.90;;;;;;5083853;28;20707;-74
2021/01/14 09:26:33;;;;;;;13.13;10.47;;;2.90;99.90;;;;;;5078404;28;20425;-75
2021/01/14 09:28:58;;;;;;;17.57;12.37;;;3.00;99.90;;;;;;5082546;28;20711;-76
2021/01/14 09:31:29;;;;;;;11.10;8.13;;;3.10;99.90;;;;;;5080963;28;20189;-75
2021/01/14 09:33:58;;;;;;;6.63;5.93;;;3.10;99.90;;;;;;5081792;28;20189;-76
2021/01/14 09:36:24;;;;;;;7.33;6.30;;;3.00;99.10;;;;;;5073963;28;20597;-76
2021/01/14 09:38:57;;;;;;;6.20;5.30;;;2.90;99.10;;;;;;5079031;28;20197;-74
2021/01/14 09:41:29;;;;;;;6.33;5.67;;;2.80;98.70;;;;;;5080463;28;20187;-77
2021/01/14 09:43:59;;;;;;;8.27;6.00;;;2.80;98.90;;;;;;5089901;28;20233;-75
2021/01/14 09:46:27;;;;;;;8.20;5.70;;;2.70;98.80;;;;;;5079129;28;20556;-75
2021/01/14 09:49:11;;;;;;;10.83;5.27;;;2.60;98.80;;;;;;5071662;28;20394;-75
2021/01/14 09:51:38;;;;;;;6.20;4.97;;;2.40;98.40;;;;;;5077739;28;20272;-77
2021/01/14 09:54:05;;;;;;;6.73;5.73;;;2.40;98.40;;;;;;5075707;28;20204;-75
2021/01/14 09:56:33;;;;;;;5.50;4.77;;;2.40;98.70;;;;;;5078252;28;20230;-74
2021/01/14 09:59:22;;;;;;;6.70;4.90;;;2.40;98.40;;;;;;5077714;28;20648;-75
2021/01/14 10:01:54;;;;;;;9.43;5.50;;;2.50;97.90;;;;;;5092167;27;20264;-74
2021/01/14 10:04:26;;;;;;;9.37;6.50;;;2.50;97.60;;;;;;5081055;28;20179;-75
2021/01/14 10:06:57;;;;;;;6.47;5.07;;;2.60;98.40;;;;;;5076203;28;20205;-75
2021/01/14 10:09:23;;;;;;;10.77;6.87;;;2.60;97.60;;;;;;5073390;28;20250;-75
2021/01/14 10:11:50;;;;;;;9.27;6.47;;;2.60;97.90;;;;;;5075591;28;20181;-75
2021/01/14 10:14:20;;;;;;;8.07;7.22;;;2.60;97.80;;;;;;5076111;28;21304;-77
2021/01/14 10:16:47;;;;;;;7.53;6.80;;;2.70;97.60;;;;;;5073582;28;20625;-76
2021/01/14 10:19:20;;;;;;;9.27;7.50;;;2.60;97.10;;;;;;5075630;28;20253;-76
2021/01/14 10:21:50;;;;;;;7.73;5.77;;;2.60;97.20;;;;;;5080001;28;20196;-77
2021/01/14 10:24:18;;;;;;;7.57;5.80;;;2.60;97.50;;;;;;5081887;28;20186;-75
2021/01/14 10:26:44;;;;;;;8.13;6.20;;;2.50;97.70;;;;;;5082463;28;20207;-75
2021/01/14 10:29:10;;;;;;;9.77;7.30;;;2.50;98.00;;;;;;5083803;28;20704;-76
2021/01/14 10:31:38;;;;;;;8.17;6.50;;;2.50;98.00;;;;;;5078956;28;20276;-76
2021/01/14 10:34:06;;;;;;;9.70;7.87;;;2.50;97.90;;;;;;5072411;28;20185;-75
2021/01/14 10:36:49;;;;;;;9.97;8.40;;;2.60;98.70;;;;;;5076380;28;20210;-75
2021/01/14 10:39:18;;;;;;;14.63;8.80;;;2.60;98.50;;;;;;5077172;28;20178;-75
2021/01/14 10:41:45;;;;;;;18.33;9.53;;;2.70;98.10;;;;;;5073747;28;20219;-76
2021/01/14 10:44:10;;;;;;;14.67;10.70;;;2.70;98.70;;;;;;5077881;28;20191;-76
2021/01/14 10:46:36;;;;;;;9.77;6.80;;;2.80;98.20;;;;;;5075654;28;20238;-76
2021/01/14 10:49:13;;;;;;;7.80;6.57;;;2.80;97.10;;;;;;5076964;28;20627;-76
2021/01/14 10:51:40;;;;;;;11.30;7.73;;;2.70;97.20;;;;;;5075180;28;20208;-75
2021/01/14 10:54:07;;;;;;;11.47;7.00;;;2.70;96.80;;;;;;5078286;28;20185;-76
2021/01/14 10:56:33;;;;;;;13.47;9.23;;;2.70;96.30;;;;;;5078882;28;20236;-76
2021/01/14 10:59:06;;;;;;;11.07;9.20;;;2.60;96.60;;;;;;5080899;28;20646;-76
2021/01/14 11:01:32;;;;;;;12.73;9.60;;;2.70;97.20;;;;;;5083530;28;20199;-76
2021/01/14 11:04:07;;;;;;;13.60;10.03;;;2.80;97.80;;;;;;5077972;28;20183;-76
2021/01/14 11:06:36;;;;;;;9.20;8.20;;;2.90;97.70;;;;;;5081805;28;20222;-76
2021/01/14 11:09:11;;;;;;;7.57;6.67;;;3.00;97.60;;;;;;5078767;28;20197;-76
2021/01/14 11:11:37;;;;;;;8.03;6.93;;;3.10;97.10;;;;;;5081547;28;20205;-77
2021/01/14 11:14:03;;;;;;;8.50;6.77;;;3.10;96.40;;;;;;5079957;28;20188;-77
2021/01/14 11:16:29;;;;;;;9.17;7.47;;;3.10;95.50;;;;;;5084915;28;20233;-76
2021/01/14 11:18:57;;;;;;;7.43;6.67;;;3.00;95.70;;;;;;5083399;28;20635;-77
2021/01/14 11:21:42;;;;;;;8.10;6.10;;;2.90;96.40;;;;;;5073182;28;20314;-76
2021/01/14 11:24:08;;;;;;;11.77;9.50;;;2.80;96.40;;;;;;5082229;28;20187;-78
2021/01/14 11:26:34;;;;;;;9.33;6.30;;;2.80;96.60;;;;;;5081334;28;20218;-77
2021/01/14 11:28:59;;;;;;;8.20;6.45;;;2.80;96.60;;;;;;5088175;28;20409;-76
2021/01/14 11:31:26;;;;;;;7.77;5.90;;;2.90;96.50;;;;;;5089412;28;20175;-76
2021/01/14 11:33:52;;;;;;;5.83;4.60;;;2.90;96.30;;;;;;5080247;28;20241;-77
2021/01/14 11:36:20;;;;;;;10.85;7.03;;;2.80;95.80;;;;;;5080711;28;20473;-77
2021/01/14 11:38:47;;;;;;;6.23;5.63;;;2.80;96.20;;;;;;5087188;28;20185;-78
2021/01/14 11:41:19;;;;;;;10.90;8.90;;;2.80;96.00;;;;;;5078474;28;20182;-77
2021/01/14 11:43:45;;;;;;;6.67;5.97;;;2.90;96.50;;;;;;5075937;28;20185;-77
2021/01/14 11:46:20;;;;;;;10.87;7.17;;;2.80;96.00;;;;;;5082850;28;20203;-76
2021/01/14 11:48:46;;;;;;;5.33;4.73;;;2.80;96.90;;;;;;5081000;28;20559;-76
2021/01/14 11:51:12;;;;;;;4.10;3.73;;;2.80;97.30;;;;;;5082950;28;20240;-77
2021/01/14 11:53:38;;;;;;;4.23;3.40;;;2.70;97.60;;;;;;5075842;28;20634;-76
2021/01/14 11:56:05;;;;;;;5.30;3.67;;;2.40;97.60;;;;;;5082143;28;20426;-75
2021/01/14 11:58:30;;;;;;;3.63;3.33;;;2.10;98.40;;;;;;5093783;28;20175;-77
2021/01/14 12:00:56;;;;;;;3.90;3.53;;;1.90;99.30;;;;;;5102264;28;20174;-77
2021/01/14 12:03:22;;;;;;;13.27;4.50;;;1.80;99.70;;;;;;5096925;28;20234;-77
2021/01/14 12:05:47;;;;;;;3.63;3.33;;;1.90;99.80;;;;;;5095705;28;20663;-76
2021/01/14 12:08:13;;;;;;;5.47;4.27;;;1.80;99.90;;;;;;5098162;28;20236;-75
2021/01/14 12:10:38;;;;;;;4.53;4.10;;;1.80;99.90;;;;;;5090336;28;20212;-76
2021/01/14 12:13:04;;;;;;;4.00;3.67;;;1.80;99.90;;;;;;5093451;28;20190;-77
2021/01/14 12:15:30;;;;;;;3.67;3.20;;;1.80;99.90;;;;;;5087695;28;20832;-76
2021/01/14 12:17:55;;;;;;;3.67;3.17;;;1.80;99.90;;;;;;5082964;28;20204;-75
2021/01/14 12:20:21;;;;;;;4.27;3.80;;;1.80;99.80;;;;;;5078076;28;20256;-75
2021/01/14 12:22:46;;;;;;;4.50;3.33;;;1.80;99.90;;;;;;5085009;28;20571;-76
2021/01/14 12:25:13;;;;;;;4.90;3.73;;;1.90;99.90;;;;;;5086798;28;20239;-74
2021/01/14 12:27:40;;;;;;;5.23;4.00;;;1.90;99.90;;;;;;5083247;28;20213;-75
2021/01/14 12:30:07;;;;;;;6.10;4.50;;;2.00;99.80;;;;;;5086749;28;20182;-75
2021/01/14 12:32:33;;;;;;;4.50;4.10;;;2.10;99.80;;;;;;5098050;28;20310;-75
2021/01/14 12:34:59;;;;;;;6.93;4.40;;;2.20;98.50;;;;;;5085282;28;20878;-76
2021/01/14 12:37:30;;;;;;;4.97;4.53;;;2.20;98.70;;;;;;5077310;28;20239;-75
2021/01/14 12:39:55;;;;;;;5.47;3.97;;;2.30;99.10;;;;;;5085912;28;20179;-75
2021/01/14 12:42:21;;;;;;;4.97;4.13;;;2.40;97.80;;;;;;5090177;28;20251;-76
2021/01/14 12:44:46;;;;;;;7.00;5.27;;;2.40;97.90;;;;;;5080765;28;20208;-75
2021/01/14 12:47:12;;;;;;;9.77;6.70;;;2.60;98.60;;;;;;5076009;28;20661;-75
2021/01/14 12:49:38;;;;;;;10.57;7.10;;;2.70;97.90;;;;;;5086209;28;20179;-76
2021/01/14 12:52:03;;;;;;;10.10;7.17;;;2.90;98.00;;;;;;5080901;28;20246;-77
2021/01/14 12:54:29;;;;;;;12.63;9.07;;;3.10;96.90;;;;;;5084289;28;20670;-76
2021/01/14 12:56:55;;;;;;;5.23;4.60;;;3.30;96.40;;;;;;5094816;28;20207;-76
2021/01/14 12:59:21;;;;;;;7.17;6.23;;;3.20;95.90;;;;;;5099434;28;21719;-76
2021/01/14 13:01:47;;;;;;;11.23;7.77;;;3.20;95.30;;;;;;5097201;28;20182;-75
2021/01/14 13:04:16;;;;;;;8.63;6.13;;;3.20;95.50;;;;;;5089753;28;20179;-75
2021/01/14 13:06:41;;;;;;;9.63;6.40;;;3.10;95.20;;;;;;5090436;28;20198;-77
2021/01/14 13:09:09;;;;;;;7.23;5.70;;;3.00;95.00;;;;;;5093615;28;20196;-75